Time;durP1;ratioP1;P1;durP2;ratioP2;P2;SDS_P1;SDS_P2;PMS_P1;PMS_P2;Temp;Humidity;BMP_temperature;BMP_pressure;BME280_temperature;BME280_humidity;BME280_pressure;Samples;Min_cycle;Max_cycle;Signal;HPM_P1;HPM_P2
2023/01/02 00:00:23;;;;;;;29.45;13.43;;;11.60;99.90;;;;;;5029660;28;20038;-75
2023/01/02 00:02:49;;;;;;;26.92;12.90;;;11.60;99.90;;;;;;5029571;28;20036;-75
2023/01/02 00:05:15;;;;;;;31.45;13.55;;;11.60;99.90;;;;;;5025537;28;20056;-76
2023/01/02 00:07:40;;;;;;;35.10;15.32;;;11.50;99.90;;;;;;5029169;28;20471;-75
2023/01/02 00:10:06;;;;;;;28.63;13.15;;;11.50;99.90;;;;;;5030002;28;20022;-75
2023/01/02 00:12:32;;;;;;;27.95;13.85;;;11.60;99.90;;;;;;5027671;28;20025;-76
2023/01/02 00:14:57;;;;;;;29.10;11.43;;;11.60;99.90;;;;;;5030791;28;20395;-76
2023/01/02 00:17:23;;;;;;;34.63;15.38;;;11.50;99.90;;;;;;5031218;28;20045;-75
2023/01/02 00:19:48;;;;;;;28.63;12.70;;;11.50;99.90;;;;;;5027138;28;20391;-75
2023/01/02 00:22:14;;;;;;;36.47;15.55;;;11.50;99.90;;;;;;5028752;28;20494;-76
2023/01/02 00:24:39;;;;;;;32.03;16.20;;;11.50;99.90;;;;;;5028398;28;20084;-76
2023/01/02 00:27:05;;;;;;;32.63;14.35;;;11.50;99.90;;;;;;5023725;28;20030;-75
2023/01/02 00:29:30;;;;;;;34.15;15.80;;;11.50;99.90;;;;;;5020023;28;20124;-76
2023/01/02 00:31:56;;;;;;;32.28;16.38;;;11.50;99.90;;;;;;5028235;28;20068;-76
2023/01/02 00:34:21;;;;;;;32.42;14.88;;;11.60;99.90;;;;;;5021654;28;20116;-76
2023/01/02 00:36:47;;;;;;;32.83;14.35;;;11.60;99.90;;;;;;5027948;28;20407;-76
2023/01/02 00:39:13;;;;;;;29.15;14.73;;;11.60;99.90;;;;;;5030393;28;20426;-76
2023/01/02 00:41:38;;;;;;;32.58;15.40;;;11.60;99.90;;;;;;5030017;28;20134;-75
2023/01/02 00:44:04;;;;;;;27.63;14.43;;;11.60;99.90;;;;;;5029221;28;20057;-75
2023/01/02 00:46:30;;;;;;;30.67;16.05;;;11.60;99.90;;;;;;5019436;28;20053;-75
2023/01/02 00:48:55;;;;;;;29.55;15.48;;;11.70;99.90;;;;;;5028950;28;20444;-75
2023/01/02 00:51:21;;;;;;;30.02;14.88;;;11.70;99.90;;;;;;5028128;28;20100;-76
2023/01/02 00:53:46;;;;;;;31.48;12.65;;;11.70;99.90;;;;;;5025494;28;20026;-74
2023/01/02 00:56:12;;;;;;;25.10;11.65;;;11.80;99.90;;;;;;5022236;28;20080;-74
2023/01/02 00:58:37;;;;;;;30.92;13.25;;;11.80;99.90;;;;;;5029157;28;20021;-75
2023/01/02 01:01:03;;;;;;;28.27;13.57;;;11.80;99.90;;;;;;5030042;28;20037;-75
2023/01/02 01:03:29;;;;;;;27.10;12.05;;;11.80;99.90;;;;;;5027114;28;20042;-74
2023/01/02 01:05:55;;;;;;;24.60;11.95;;;11.80;99.90;;;;;;5026948;28;20540;-74
2023/01/02 01:08:20;;;;;;;26.70;9.70;;;11.80;99.90;;;;;;5026962;28;20025;-75
2023/01/02 01:10:48;;;;;;;25.50;11.43;;;11.80;99.90;;;;;;5016252;28;20171;-75
2023/01/02 01:13:15;;;;;;;27.55;10.70;;;11.90;99.90;;;;;;5027201;28;20029;-75
2023/01/02 01:15:41;;;;;;;26.27;11.70;;;11.80;99.90;;;;;;5027964;28;20055;-75
2023/01/02 01:18:06;;;;;;;28.30;10.20;;;11.80;99.90;;;;;;5034677;28;20387;-75
2023/01/02 01:20:32;;;;;;;23.33;8.93;;;11.80;99.90;;;;;;5024011;28;20385;-75
2023/01/02 01:22:57;;;;;;;24.30;10.27;;;11.80;99.90;;;;;;5034477;28;20029;-76
2023/01/02 01:25:23;;;;;;;23.77;9.82;;;11.80;99.90;;;;;;5026054;28;20041;-75
2023/01/02 01:27:52;;;;;;;23.63;9.52;;;11.80;99.90;;;;;;5033324;28;20036;-76
2023/01/02 01:30:17;;;;;;;23.58;9.45;;;11.80;99.90;;;;;;5033245;28;20041;-75
2023/01/02 01:32:43;;;;;;;22.60;7.90;;;11.80;99.90;;;;;;5020408;28;20041;-75
2023/01/02 01:35:08;;;;;;;19.25;8.20;;;11.80;99.90;;;;;;5029105;28;20045;-75
2023/01/02 01:37:36;;;;;;;22.27;8.75;;;11.80;99.90;;;;;;5029596;28;20033;-76
2023/01/02 01:40:02;;;;;;;21.90;10.48;;;11.90;99.90;;;;;;5020052;28;20022;-75
2023/01/02 01:42:33;;;;;;;21.35;9.48;;;11.90;99.90;;;;;;5027597;28;20029;-75
2023/01/02 01:44:59;;;;;;;28.70;10.98;;;11.90;99.90;;;;;;5029145;28;20479;-76
2023/01/02 01:47:34;;;;;;;21.27;8.70;;;11.90;99.90;;;;;;5033271;28;20116;-76
2023/01/02 01:50:09;;;;;;;24.75;11.15;;;11.90;99.90;;;;;;5023042;28;20060;-75
2023/01/02 01:52:43;;;;;;;22.58;10.80;;;12.00;99.90;;;;;;5019257;28;20495;-75
2023/01/02 01:55:21;;;;;;;24.48;9.88;;;12.00;99.90;;;;;;5033493;28;20065;-76
2023/01/02 01:58:08;;;;;;;26.88;11.57;;;11.90;99.90;;;;;;5031538;28;20467;-76
2023/01/02 02:00:34;;;;;;;24.05;10.90;;;11.90;99.90;;;;;;5031661;28;20021;-75
2023/01/02 02:03:05;;;;;;;17.38;8.23;;;12.00;99.90;;;;;;5019610;28;20075;-75
2023/01/02 02:05:31;;;;;;;27.45;11.63;;;11.90;99.90;;;;;;5027784;28;20048;-74
2023/01/02 02:08:10;;;;;;;21.52;9.48;;;12.00;99.90;;;;;;5027305;28;20030;-75
2023/01/02 02:10:37;;;;;;;21.02;8.93;;;12.00;99.90;;;;;;5030801;28;20026;-76
2023/01/02 02:13:03;;;;;;;23.63;10.18;;;12.00;99.90;;;;;;5023840;28;20042;-76
2023/01/02 02:15:49;;;;;;;30.40;11.85;;;12.00;99.90;;;;;;5031263;28;20028;-76
2023/01/02 02:18:30;;;;;;;25.02;11.95;;;11.90;99.90;;;;;;5036102;28;20164;-75
2023/01/02 02:21:09;;;;;;;22.90;11.98;;;11.90;99.90;;;;;;5028938;28;20607;-74
2023/01/02 02:23:38;;;;;;;29.83;13.38;;;12.00;99.90;;;;;;5033225;28;20025;-76
2023/01/02 02:26:17;;;;;;;29.40;14.05;;;12.00;99.90;;;;;;5030503;28;20106;-75
2023/01/02 02:29:07;;;;;;;32.78;13.82;;;12.00;99.90;;;;;;5030115;28;20086;-75
2023/01/02 02:32:10;;;;;;;28.08;13.20;;;12.00;99.90;;;;;;5030868;28;20029;-74
2023/01/02 02:34:47;;;;;;;29.35;13.48;;;12.00;99.90;;;;;;5019523;28;20046;-74
2023/01/02 02:37:41;;;;;;;31.95;13.35;;;12.10;99.90;;;;;;5032748;28;20079;-74
2023/01/02 02:40:32;;;;;;;27.95;13.57;;;12.00;99.90;;;;;;5027223;28;20087;-73
2023/01/02 02:43:34;;;;;;;25.27;13.30;;;12.00;99.90;;;;;;5025173;28;20033;-71
2023/01/02 02:46:06;;;;;;;26.88;12.32;;;12.10;99.90;;;;;;5025841;28;20548;-72
2023/01/02 02:48:47;;;;;;;30.17;13.25;;;12.10;99.90;;;;;;5030778;28;20155;-72
2023/01/02 02:51:23;;;;;;;24.52;12.10;;;12.10;99.90;;;;;;5031061;28;20049;-73
2023/01/02 02:53:58;;;;;;;25.65;12.05;;;12.00;99.90;;;;;;5026844;28;20387;-73
2023/01/02 02:56:33;;;;;;;26.92;12.15;;;12.00;99.90;;;;;;5032441;28;20037;-72
2023/01/02 02:58:59;;;;;;;21.77;11.55;;;12.00;99.90;;;;;;5029451;28;20029;-72
2023/01/02 03:01:27;;;;;;;26.25;13.32;;;12.00;99.90;;;;;;5027619;28;20101;-72
2023/01/02 03:03:53;;;;;;;23.13;11.68;;;12.00;99.90;;;;;;5023854;28;20121;-72
2023/01/02 03:06:35;;;;;;;26.08;13.63;;;12.10;99.90;;;;;;5027480;28;20156;-73
2023/01/02 03:09:19;;;;;;;22.45;9.93;;;12.00;99.90;;;;;;5025545;28;20107;-72
2023/01/02 03:12:12;;;;;;;26.52;12.82;;;12.10;99.90;;;;;;5031443;28;20390;-73
2023/01/02 03:15:17;;;;;;;28.58;14.00;;;12.00;99.90;;;;;;5033371;28;20378;-72
2023/01/02 03:18:04;;;;;;;24.70;11.90;;;12.00;99.90;;;;;;5031215;28;20060;-72
2023/01/02 03:20:43;;;;;;;26.35;13.05;;;12.00;99.90;;;;;;5043606;28;20082;-72
2023/01/02 03:23:17;;;;;;;27.17;13.57;;;12.00;99.90;;;;;;5031601;28;20034;-71
2023/01/02 03:25:43;;;;;;;26.83;12.93;;;12.00;99.90;;;;;;5030657;28;20084;-72
2023/01/02 03:28:12;;;;;;;26.13;13.57;;;12.10;99.90;;;;;;5029501;28;20028;-72
2023/01/02 03:30:39;;;;;;;26.05;12.48;;;12.10;99.90;;;;;;5034474;28;20060;-73
2023/01/02 03:33:15;;;;;;;25.75;13.07;;;12.10;99.90;;;;;;5031726;28;20478;-72
2023/01/02 03:35:54;;;;;;;21.48;10.73;;;12.10;99.90;;;;;;5025906;28;20029;-73
2023/01/02 03:38:46;;;;;;;26.13;11.88;;;12.10;99.90;;;;;;5031580;28;20479;-72
2023/01/02 03:41:20;;;;;;;21.58;9.65;;;12.10;99.90;;;;;;5021046;28;20053;-72
2023/01/02 03:43:48;;;;;;;19.30;9.38;;;12.10;99.90;;;;;;5030187;28;20037;-71
2023/01/02 03:46:17;;;;;;;18.10;9.50;;;12.00;99.90;;;;;;5030608;28;20144;-72
2023/01/02 03:48:59;;;;;;;15.23;7.43;;;12.00;99.90;;;;;;5031936;28;20045;-73
2023/01/02 03:51:24;;;;;;;18.37;7.23;;;12.00;99.90;;;;;;5031611;28;20368;-72
2023/01/02 03:53:51;;;;;;;14.27;6.00;;;12.00;99.90;;;;;;5016904;28;20293;-72
2023/01/02 03:56:35;;;;;;;15.57;6.75;;;11.90;99.90;;;;;;5027811;28;20030;-72
2023/01/02 03:59:24;;;;;;;10.75;5.30;;;11.90;99.90;;;;;;5024367;28;20029;-72
2023/01/02 04:02:00;;;;;;;15.05;6.72;;;11.80;99.90;;;;;;5023497;28;20021;-72
2023/01/02 04:04:45;;;;;;;12.15;5.10;;;11.80;99.90;;;;;;5031644;28;20040;-71
2023/01/02 04:07:17;;;;;;;11.07;4.90;;;11.70;99.90;;;;;;5031483;28;20398;-72
2023/01/02 04:09:45;;;;;;;9.07;4.45;;;11.70;99.90;;;;;;5028825;28;20030;-72
2023/01/02 04:12:14;;;;;;;11.70;4.72;;;11.70;99.90;;;;;;5027192;28;20044;-72
2023/01/02 04:14:42;;;;;;;10.30;5.22;;;11.70;99.90;;;;;;5031749;28;20175;-72
2023/01/02 04:17:11;;;;;;;17.10;6.63;;;11.60;99.90;;;;;;5027442;28;20093;-72
2023/01/02 04:20:00;;;;;;;17.00;6.50;;;11.50;99.90;;;;;;5030712;28;20475;-73
2023/01/02 04:22:29;;;;;;;14.27;5.82;;;11.50;99.90;;;;;;5030803;28;20061;-73
2023/01/02 04:25:02;;;;;;;18.45;7.15;;;11.40;99.90;;;;;;5030787;28;20394;-73
2023/01/02 04:27:45;;;;;;;18.05;7.72;;;11.40;99.90;;;;;;5027710;28;20029;-73
2023/01/02 04:30:11;;;;;;;18.27;7.95;;;11.40;99.90;;;;;;5030569;28;20045;-72
2023/01/02 04:32:41;;;;;;;15.85;7.25;;;11.30;99.90;;;;;;5030238;28;20375;-72
2023/01/02 04:35:20;;;;;;;13.20;5.47;;;11.30;99.90;;;;;;5031335;28;20029;-72
2023/01/02 04:37:46;;;;;;;13.90;5.47;;;11.30;99.90;;;;;;5031704;28;20030;-72
2023/01/02 04:40:22;;;;;;;13.25;5.75;;;11.20;99.90;;;;;;5032052;28;20118;-72
2023/01/02 04:42:47;;;;;;;12.50;4.55;;;11.10;99.90;;;;;;5031795;28;20029;-72
2023/01/02 04:45:13;;;;;;;11.63;3.30;;;11.20;99.90;;;;;;5030678;28;20041;-72
2023/01/02 04:47:39;;;;;;;6.35;2.63;;;11.00;99.90;;;;;;5031222;28;20029;-73
2023/01/02 04:50:05;;;;;;;9.13;3.10;;;11.00;99.90;;;;;;5031721;28;20494;-74
2023/01/02 04:52:31;;;;;;;6.93;2.33;;;10.90;99.90;;;;;;5030189;28;20080;-74
2023/01/02 04:54:57;;;;;;;5.53;2.42;;;10.90;99.90;;;;;;5031889;28;20025;-74
2023/01/02 04:57:22;;;;;;;7.28;2.15;;;10.80;99.90;;;;;;5033791;28;20083;-74
2023/01/02 04:59:49;;;;;;;8.13;2.40;;;10.80;99.90;;;;;;5035879;28;20033;-74
2023/01/02 05:02:15;;;;;;;6.65;1.92;;;10.80;99.90;;;;;;5034798;28;20041;-74
2023/01/02 05:04:40;;;;;;;8.50;2.17;;;10.80;99.90;;;;;;5035122;28;20029;-74
2023/01/02 05:07:07;;;;;;;8.55;2.20;;;10.70;99.90;;;;;;5035364;28;20037;-73
2023/01/02 05:09:32;;;;;;;6.72;2.30;;;10.60;99.90;;;;;;5035600;28;20021;-72
2023/01/02 05:11:58;;;;;;;9.25;2.83;;;10.60;99.90;;;;;;5033009;28;20040;-72
2023/01/02 05:14:23;;;;;;;4.55;1.92;;;10.60;99.90;;;;;;5018112;28;20049;-72
2023/01/02 05:16:49;;;;;;;7.22;2.30;;;10.60;99.90;;;;;;5034545;28;20105;-72
2023/01/02 05:19:15;;;;;;;7.47;1.85;;;10.60;99.90;;;;;;5035415;28;20021;-72
2023/01/02 05:24:25;;;;;;;8.77;2.08;;;10.50;99.90;;;;;;5035215;28;20041;-72
2023/01/02 05:26:51;;;;;;;5.38;1.58;;;10.50;99.90;;;;;;5034925;28;20073;-72
2023/01/02 05:29:17;;;;;;;1.98;1.15;;;10.60;99.90;;;;;;5034943;28;20095;-72
2023/01/02 05:31:43;;;;;;;7.38;1.42;;;10.50;99.90;;;;;;5035019;28;20742;-72
2023/01/02 05:34:12;;;;;;;10.98;1.38;;;10.50;99.90;;;;;;5035216;28;20475;-73
2023/01/02 05:36:38;;;;;;;8.63;1.52;;;10.40;99.90;;;;;;5034716;28;20030;-74
2023/01/02 05:39:08;;;;;;;3.50;0.93;;;10.40;99.90;;;;;;5034584;28;20029;-74
2023/01/02 05:41:33;;;;;;;5.05;1.10;;;10.40;99.90;;;;;;5034650;28;20127;-74
2023/01/02 05:43:59;;;;;;;5.95;0.80;;;10.30;99.90;;;;;;5034601;28;20115;-74
2023/01/02 05:46:24;;;;;;;4.75;0.98;;;10.30;99.90;;;;;;5034614;28;20391;-74
2023/01/02 05:48:50;;;;;;;6.30;1.20;;;10.20;99.90;;;;;;5034508;28;20482;-74
2023/01/02 05:51:16;;;;;;;7.45;1.70;;;10.20;99.90;;;;;;5034766;28;20029;-75
2023/01/02 05:53:42;;;;;;;8.27;1.73;;;10.20;99.90;;;;;;5034527;28;20485;-75
2023/01/02 05:56:12;;;;;;;4.45;1.17;;;10.20;99.90;;;;;;5034882;28;20025;-74
2023/01/02 05:58:40;;;;;;;6.82;0.95;;;10.20;99.90;;;;;;5034131;28;20033;-73
2023/01/02 06:01:08;;;;;;;5.00;1.05;;;10.10;99.90;;;;;;5034154;28;20108;-73
2023/01/02 06:03:33;;;;;;;4.82;1.25;;;10.10;99.90;;;;;;5034584;28;20025;-73
2023/01/02 06:06:07;;;;;;;7.40;1.40;;;10.10;99.90;;;;;;5034142;28;20045;-74
2023/01/02 06:08:34;;;;;;;3.35;1.40;;;10.10;99.90;;;;;;5033499;28;20033;-74
2023/01/02 06:11:00;;;;;;;7.55;1.27;;;10.00;99.90;;;;;;5033887;28;20037;-74
2023/01/02 06:13:28;;;;;;;7.78;1.60;;;10.00;99.90;;;;;;5033479;28;20120;-74
2023/01/02 06:15:55;;;;;;;7.05;1.55;;;10.10;99.90;;;;;;5033665;28;20033;-73
2023/01/02 06:18:21;;;;;;;9.52;1.33;;;10.10;99.90;;;;;;5034218;28;20025;-74
2023/01/02 06:20:46;;;;;;;6.22;1.35;;;10.00;99.90;;;;;;5034262;28;20039;-74
2023/01/02 06:23:12;;;;;;;10.23;1.58;;;10.00;99.90;;;;;;5033990;28;20454;-74
2023/01/02 06:25:38;;;;;;;4.70;1.02;;;10.10;99.90;;;;;;5034051;28;20051;-74
2023/01/02 06:28:04;;;;;;;13.00;1.80;;;10.10;99.90;;;;;;5033919;28;20083;-74
2023/01/02 06:30:29;;;;;;;10.48;1.55;;;10.00;99.90;;;;;;5033618;28;20040;-74
2023/01/02 06:32:56;;;;;;;9.65;1.90;;;10.00;99.90;;;;;;5033348;28;20112;-74
2023/01/02 06:35:22;;;;;;;15.98;1.40;;;10.00;99.90;;;;;;5033155;28;20025;-74
2023/01/02 06:37:47;;;;;;;11.13;1.85;;;10.00;99.90;;;;;;5033468;28;20124;-74
2023/01/02 06:40:13;;;;;;;13.57;3.00;;;10.00;99.90;;;;;;5033163;28;20506;-73
2023/01/02 06:42:39;;;;;;;13.82;1.67;;;10.00;99.90;;;;;;5033484;28;20148;-73
2023/01/02 06:45:05;;;;;;;13.27;1.40;;;9.90;99.90;;;;;;5033655;28;20037;-73
2023/01/02 06:47:30;;;;;;;7.82;2.22;;;9.90;99.90;;;;;;5033626;28;20037;-73
2023/01/02 06:49:56;;;;;;;8.85;1.45;;;9.90;99.90;;;;;;5033777;28;20049;-73
2023/01/02 06:52:22;;;;;;;11.90;1.88;;;9.90;99.90;;;;;;5033230;28;20036;-73
2023/01/02 06:54:47;;;;;;;12.55;1.65;;;9.90;99.90;;;;;;5033280;28;20025;-74
2023/01/02 06:57:13;;;;;;;8.10;2.25;;;9.90;99.90;;;;;;5033149;28;20033;-75
2023/01/02 06:59:38;;;;;;;12.82;2.10;;;9.90;99.90;;;;;;5033684;28;20375;-74
2023/01/02 07:02:04;;;;;;;13.00;2.00;;;9.90;99.90;;;;;;5032996;28;20068;-74
2023/01/02 07:04:30;;;;;;;9.35;1.50;;;9.90;99.90;;;;;;5033536;28;20025;-74
2023/01/02 07:06:56;;;;;;;12.57;3.05;;;9.90;99.90;;;;;;5033151;28;20099;-73
2023/01/02 07:09:21;;;;;;;9.27;1.42;;;9.90;99.90;;;;;;5033130;28;20378;-73
2023/01/02 07:11:47;;;;;;;7.78;1.20;;;9.90;99.90;;;;;;5032911;28;20033;-73
2023/01/02 07:14:12;;;;;;;8.40;1.67;;;9.90;99.90;;;;;;5030481;28;20032;-73
2023/01/02 07:16:38;;;;;;;11.57;2.30;;;9.90;99.90;;;;;;5013335;28;20113;-73
2023/01/02 07:19:03;;;;;;;8.32;1.50;;;9.90;99.90;;;;;;5031942;28;20068;-73
2023/01/02 07:21:29;;;;;;;5.18;1.20;;;9.90;99.90;;;;;;5032811;28;20033;-72
2023/01/02 07:23:55;;;;;;;8.15;1.10;;;9.90;99.90;;;;;;5032845;28;20033;-72
2023/01/02 07:26:21;;;;;;;8.30;1.48;;;9.90;99.90;;;;;;5032053;28;20095;-73
2023/01/02 07:28:47;;;;;;;9.35;1.40;;;9.90;99.90;;;;;;5033013;28;20037;-73
2023/01/02 07:31:15;;;;;;;4.07;1.38;;;9.90;99.90;;;;;;5032419;28;20021;-73
2023/01/02 07:33:41;;;;;;;6.50;1.20;;;9.90;99.90;;;;;;5032934;28;20033;-73
2023/01/02 07:36:11;;;;;;;9.95;1.42;;;9.90;99.90;;;;;;5033059;28;20040;-73
2023/01/02 07:38:38;;;;;;;8.05;1.10;;;9.90;99.90;;;;;;5032547;28;20116;-73
2023/01/02 07:41:14;;;;;;;7.20;1.15;;;9.90;99.90;;;;;;5032343;28;20037;-73
2023/01/02 07:43:40;;;;;;;2.97;0.82;;;9.90;99.90;;;;;;5032747;28;20391;-73
2023/01/02 07:46:05;;;;;;;3.10;1.00;;;9.90;99.90;;;;;;5032626;28;20034;-73
2023/01/02 07:48:31;;;;;;;9.52;1.50;;;9.90;99.90;;;;;;5032235;28;20048;-73
2023/01/02 07:51:01;;;;;;;4.07;1.13;;;9.90;99.90;;;;;;5031500;28;20049;-74
2023/01/02 07:53:26;;;;;;;7.32;1.13;;;9.80;99.90;;;;;;5032547;28;20030;-73
2023/01/02 07:55:53;;;;;;;5.95;1.17;;;9.80;99.90;;;;;;5032580;28;20026;-73
2023/01/02 07:58:19;;;;;;;8.85;1.13;;;9.80;99.90;;;;;;5032655;28;20109;-73
2023/01/02 08:00:44;;;;;;;5.45;1.50;;;9.80;99.90;;;;;;5031591;28;20107;-73
2023/01/02 08:03:10;;;;;;;6.50;1.30;;;9.70;99.90;;;;;;5032385;28;20079;-73
2023/01/02 08:05:35;;;;;;;5.18;1.23;;;9.70;99.90;;;;;;5032565;28;20038;-73
2023/01/02 08:08:01;;;;;;;8.40;1.58;;;9.70;99.90;;;;;;5031050;28;20029;-74
2023/01/02 08:10:26;;;;;;;10.30;1.45;;;9.60;99.90;;;;;;5031983;28;20104;-73
2023/01/02 08:12:52;;;;;;;5.88;1.23;;;9.50;99.90;;;;;;5032064;28;20021;-73
2023/01/02 08:15:17;;;;;;;6.65;1.60;;;9.50;99.90;;;;;;5032061;28;20374;-73
2023/01/02 08:17:43;;;;;;;14.23;2.30;;;9.50;99.90;;;;;;5031982;28;20021;-73
2023/01/02 08:20:09;;;;;;;10.25;1.70;;;9.50;99.90;;;;;;5032221;28;20025;-73
2023/01/02 08:22:35;;;;;;;9.70;1.73;;;9.50;99.90;;;;;;5031675;28;20064;-74
2023/01/02 08:25:00;;;;;;;9.35;1.55;;;9.50;99.90;;;;;;5030085;28;20033;-73
2023/01/02 08:27:26;;;;;;;11.50;2.03;;;9.50;99.90;;;;;;5031799;28;20048;-73
2023/01/02 08:29:52;;;;;;;11.82;1.85;;;9.50;99.90;;;;;;5031974;28;20029;-73
2023/01/02 08:32:17;;;;;;;10.50;1.50;;;9.50;99.90;;;;;;5034233;28;20438;-73
2023/01/02 08:34:43;;;;;;;11.63;1.77;;;9.50;99.90;;;;;;5034353;28;20497;-73
2023/01/02 08:37:08;;;;;;;9.02;1.80;;;9.50;99.90;;;;;;5035704;28;20037;-73
2023/01/02 08:39:34;;;;;;;8.90;2.55;;;9.50;99.90;;;;;;5036035;28;20053;-73
2023/01/02 08:42:00;;;;;;;9.23;1.70;;;9.50;99.90;;;;;;5035880;28;20021;-73
2023/01/02 08:44:25;;;;;;;9.45;1.52;;;9.50;99.90;;;;;;5036192;28;20029;-73
2023/01/02 08:46:51;;;;;;;10.25;1.92;;;9.50;99.90;;;;;;5035336;28;20395;-73
2023/01/02 08:49:16;;;;;;;9.50;1.70;;;9.50;99.90;;;;;;5035388;28;20045;-73
2023/01/02 08:51:42;;;;;;;12.63;1.98;;;9.50;99.90;;;;;;5035548;28;20040;-73
2023/01/02 08:54:07;;;;;;;5.05;1.38;;;9.40;99.90;;;;;;5035765;28;20025;-73
2023/01/02 08:56:34;;;;;;;5.85;1.10;;;9.50;99.90;;;;;;5047805;28;20025;-73
2023/01/02 08:59:06;;;;;;;7.72;1.77;;;9.50;99.90;;;;;;5035040;28;20461;-73
2023/01/02 09:01:32;;;;;;;8.05;1.30;;;9.50;99.90;;;;;;5035298;28;20088;-73
2023/01/02 09:03:58;;;;;;;6.38;1.17;;;9.50;99.90;;;;;;5035334;28;20095;-73
2023/01/02 09:06:26;;;;;;;10.02;1.48;;;9.50;99.90;;;;;;5035739;28;20037;-73
2023/01/02 09:08:54;;;;;;;7.95;2.30;;;9.60;99.90;;;;;;5034510;28;20033;-73
2023/01/02 09:11:31;;;;;;;6.75;1.42;;;9.60;99.90;;;;;;5035209;28;20057;-73
2023/01/02 09:13:58;;;;;;;8.35;1.30;;;9.50;99.90;;;;;;5021769;28;20084;-73
2023/01/02 09:16:24;;;;;;;9.98;1.45;;;9.50;99.90;;;;;;5024363;28;20033;-72
2023/01/02 09:18:50;;;;;;;5.97;1.15;;;9.50;99.90;;;;;;5035074;28;20030;-73
2023/01/02 09:21:15;;;;;;;9.68;1.60;;;9.50;99.90;;;;;;5034870;28;20387;-72
2023/01/02 09:23:41;;;;;;;8.13;1.95;;;9.50;99.90;;;;;;5035065;28;20098;-72
2023/01/02 09:26:08;;;;;;;11.63;1.95;;;9.50;99.90;;;;;;5035499;28;20152;-72
2023/01/02 09:28:35;;;;;;;12.07;1.48;;;9.50;99.90;;;;;;5034957;28;20044;-73
2023/01/02 09:31:08;;;;;;;11.63;1.83;;;9.50;99.90;;;;;;5034046;28;20025;-72
2023/01/02 09:33:34;;;;;;;14.23;2.63;;;9.50;99.90;;;;;;5034891;28;20022;-72
2023/01/02 09:36:04;;;;;;;10.48;1.52;;;9.50;99.90;;;;;;5035206;28;20087;-72
2023/01/02 09:38:30;;;;;;;11.63;1.77;;;9.50;99.90;;;;;;5034544;28;20051;-72
2023/01/02 09:40:57;;;;;;;13.70;1.95;;;9.50;99.90;;;;;;5034636;28;20028;-72
2023/01/02 09:43:35;;;;;;;11.00;1.83;;;9.50;99.90;;;;;;5035485;28;20464;-72
2023/01/02 09:46:03;;;;;;;10.68;1.92;;;9.50;99.90;;;;;;5034828;28;20483;-72
2023/01/02 09:48:34;;;;;;;9.82;2.25;;;9.60;99.90;;;;;;5034507;28;20057;-72
2023/01/02 09:51:02;;;;;;;12.70;2.95;;;9.70;99.90;;;;;;5033678;28;20958;-72
2023/01/02 09:53:28;;;;;;;11.60;2.25;;;9.70;99.90;;;;;;5034741;28;20080;-72
2023/01/02 09:56:10;;;;;;;13.82;2.58;;;9.80;99.90;;;;;;5034144;28;20454;-72
2023/01/02 09:58:51;;;;;;;12.27;1.77;;;9.90;99.90;;;;;;5034569;28;20430;-72
2023/01/02 10:01:23;;;;;;;14.90;2.33;;;10.00;99.90;;;;;;5034161;28;20134;-72
2023/01/02 10:04:00;;;;;;;18.30;2.00;;;10.10;99.90;;;;;;5034387;28;20018;-72
2023/01/02 10:06:42;;;;;;;9.52;2.10;;;10.20;99.90;;;;;;5034062;28;20149;-72
2023/01/02 10:09:18;;;;;;;14.85;1.95;;;10.30;99.90;;;;;;5034070;28;20072;-72
2023/01/02 10:11:52;;;;;;;19.40;2.47;;;10.40;99.90;;;;;;5033414;28;20029;-72
2023/01/02 10:14:34;;;;;;;11.30;1.55;;;10.40;99.90;;;;;;5033834;28;20044;-72
2023/01/02 10:17:02;;;;;;;12.40;1.92;;;10.40;99.90;;;;;;5032970;28;20071;-72
2023/01/02 10:19:49;;;;;;;11.00;1.73;;;10.50;99.90;;;;;;5033898;28;20528;-72
2023/01/02 10:22:21;;;;;;;11.57;2.03;;;10.40;99.90;;;;;;5033943;28;20120;-71
2023/01/02 10:25:14;;;;;;;7.00;2.03;;;10.40;99.90;;;;;;5034390;28;20121;-71
2023/01/02 10:27:55;;;;;;;14.38;2.33;;;10.40;99.90;;;;;;5033673;28;20041;-72
2023/01/02 10:30:25;;;;;;;16.50;1.98;;;10.40;99.90;;;;;;5033445;28;20034;-72
2023/01/02 10:33:19;;;;;;;15.30;3.50;;;10.40;99.90;;;;;;5033638;28;20470;-72
2023/01/02 10:35:59;;;;;;;12.40;2.28;;;10.40;99.90;;;;;;5033686;28;20040;-72
2023/01/02 10:38:35;;;;;;;17.13;3.00;;;10.40;99.90;;;;;;5032469;28;20037;-72
2023/01/02 10:41:01;;;;;;;10.75;1.80;;;10.30;99.90;;;;;;5027264;28;20032;-71
2023/01/02 10:43:28;;;;;;;11.15;1.58;;;10.40;99.90;;;;;;5024988;28;20712;-72
2023/01/02 10:45:54;;;;;;;9.45;1.60;;;10.50;99.90;;;;;;5032202;28;20037;-72
2023/01/02 10:48:25;;;;;;;15.95;1.70;;;11.00;99.90;;;;;;5029328;28;20459;-73
2023/01/02 10:51:02;;;;;;;9.40;1.90;;;11.60;99.90;;;;;;5026122;28;20069;-70
2023/01/02 10:53:35;;;;;;;14.85;2.53;;;12.10;99.90;;;;;;5029508;28;20033;-71
2023/01/02 10:56:13;;;;;;;9.57;2.33;;;12.40;99.90;;;;;;5031910;28;20028;-69
2023/01/02 10:58:44;;;;;;;10.55;1.85;;;12.20;99.90;;;;;;5024789;28;20040;-71
2023/01/02 11:01:17;;;;;;;13.27;2.13;;;11.90;99.90;;;;;;5030855;28;20080;-72
2023/01/02 11:03:44;;;;;;;12.45;1.85;;;11.60;99.90;;;;;;5020926;28;20034;-71
2023/01/02 11:06:22;;;;;;;11.27;2.67;;;11.40;99.90;;;;;;5027811;28;20095;-71
2023/01/02 11:09:18;;;;;;;11.93;1.88;;;11.30;99.90;;;;;;5017994;28;20040;-72
2023/01/02 11:11:55;;;;;;;11.40;1.67;;;11.20;99.90;;;;;;5028538;28;20044;-70
2023/01/02 11:14:26;;;;;;;13.73;1.50;;;11.00;99.90;;;;;;5024056;28;20030;-72
2023/01/02 11:16:53;;;;;;;13.13;1.73;;;10.90;99.90;;;;;;5031265;28;20074;-70
2023/01/02 11:19:21;;;;;;;13.25;1.60;;;10.80;99.90;;;;;;5026249;28;20025;-70
2023/01/02 11:21:50;;;;;;;12.55;1.60;;;10.80;99.90;;;;;;5023387;28;20030;-71
2023/01/02 11:24:24;;;;;;;18.48;2.65;;;10.80;99.90;;;;;;5030893;28;20025;-71
2023/01/02 11:26:50;;;;;;;10.82;1.77;;;10.80;99.90;;;;;;5030542;28;20099;-70
2023/01/02 11:29:22;;;;;;;7.20;1.38;;;10.80;99.90;;;;;;5032667;28;20029;-70
2023/01/02 11:31:52;;;;;;;;;;;10.80;99.90;;;;;;5028210;28;20037;-71
2023/01/02 11:34:23;;;;;;;11.25;1.85;;;10.80;99.90;;;;;;5030445;28;20011;-69
2023/01/02 11:37:12;;;;;;;6.40;1.60;;;11.00;99.90;;;;;;5018382;28;20041;-70
2023/01/02 11:39:38;;;;;;;5.68;1.48;;;11.10;99.90;;;;;;5023433;28;20082;-69
2023/01/02 11:45:14;;;;;;;14.20;1.85;;;11.20;99.90;;;;;;5021763;28;20036;-71
2023/01/02 11:48:05;;;;;;;8.68;1.60;;;11.20;99.90;;;;;;5028901;28;20041;-71
2023/01/02 11:50:37;;;;;;;10.60;1.50;;;11.30;99.90;;;;;;5029412;28;20498;-70
2023/01/02 11:53:07;;;;;;;13.73;1.55;;;11.40;99.90;;;;;;5026897;28;20094;-69
2023/01/02 11:56:01;;;;;;;7.95;1.08;;;11.40;99.90;;;;;;5027366;28;20107;-70
2023/01/02 11:58:29;;;;;;;11.90;1.92;;;11.40;99.90;;;;;;5026447;28;20033;-70
2023/01/02 12:01:17;;;;;;;8.63;1.40;;;11.40;99.90;;;;;;5031681;28;20029;-68
2023/01/02 12:03:43;;;;;;;9.65;1.27;;;11.30;99.90;;;;;;5014004;28;20044;-71
2023/01/02 12:06:22;;;;;;;7.82;1.63;;;11.20;99.90;;;;;;5013625;28;20042;-71
2023/01/02 12:09:18;;;;;;;10.43;1.55;;;11.10;99.90;;;;;;5025784;28;20025;-70
2023/01/02 12:12:05;;;;;;;9.82;1.77;;;11.10;99.90;;;;;;5028256;28;20033;-70
2023/01/02 12:15:01;;;;;;;11.73;1.80;;;11.00;99.90;;;;;;5025629;28;20072;-71
2023/01/02 12:17:42;;;;;;;9.27;1.40;;;10.90;99.90;;;;;;5026263;28;20037;-69
2023/01/02 12:20:28;;;;;;;10.88;1.80;;;11.00;99.90;;;;;;5031323;28;20033;-70
2023/01/02 12:23:40;;;;;;;16.40;2.10;;;10.90;99.90;;;;;;5025456;28;20034;-70
2023/01/02 12:26:14;;;;;;;11.60;1.80;;;10.90;99.90;;;;;;5030339;28;20081;-69
2023/01/02 12:28:54;;;;;;;12.52;1.95;;;10.90;99.90;;;;;;5031894;28;20457;-70
2023/01/02 12:31:28;;;;;;;13.85;1.77;;;10.80;99.90;;;;;;5030287;28;20099;-71
2023/01/02 12:34:36;;;;;;;12.07;1.60;;;10.90;99.90;;;;;;5031900;28;20021;-70
2023/01/02 12:37:16;;;;;;;14.23;2.10;;;11.00;99.90;;;;;;5017232;28;20033;-70
2023/01/02 12:39:42;;;;;;;10.25;1.60;;;11.00;99.90;;;;;;5025825;28;20060;-70
2023/01/02 12:42:24;;;;;;;18.17;2.78;;;11.00;99.90;;;;;;5026757;28;20460;-72
2023/01/02 12:44:52;;;;;;;;;;;11.00;99.90;;;;;;5024510;28;20028;-72
2023/01/02 12:47:47;;;;;;;11.32;1.83;;;10.90;99.90;;;;;;5029985;28;19917;-72
2023/01/02 12:50:34;;;;;;;12.73;2.08;;;10.80;99.90;;;;;;5025994;28;20049;-73
2023/01/02 12:53:13;;;;;;;13.50;2.00;;;10.80;99.90;;;;;;5027013;28;20038;-71
2023/01/02 12:55:51;;;;;;;17.25;2.55;;;10.70;99.90;;;;;;5018730;28;20037;-70
2023/01/02 12:58:41;;;;;;;12.80;1.80;;;10.60;99.90;;;;;;5022218;28;20519;-72
2023/01/02 13:01:16;;;;;;;15.88;2.25;;;10.60;99.90;;;;;;5038924;28;20033;-72
2023/01/02 13:03:59;;;;;;;9.32;1.48;;;10.70;99.90;;;;;;5017070;28;20612;-70
2023/01/02 13:06:29;;;;;;;14.23;2.05;;;10.70;99.90;;;;;;5027247;28;20808;-70